Time;durP1;ratioP1;P1;durP2;ratioP2;P2;SDS_P1;SDS_P2;PMS_P1;PMS_P2;Temp;Humidity;BMP_temperature;BMP_pressure;BME280_temperature;BME280_humidity;BME280_pressure;Samples;Min_cycle;Max_cycle;Signal;HPM_P1;HPM_P2
2023/07/04 00:00:30;;;;;;;17.92;14.25;;;;;;;21.82;100.00;-17366.72;6214323;23;20525;-66
2023/07/04 00:02:57;;;;;;;19.73;14.40;;;;;;;21.82;100.00;-17366.84;6214385;23;20158;-65
2023/07/04 00:05:26;;;;;;;17.35;14.30;;;;;;;21.88;100.00;-17044.53;6214147;23;20600;-65
2023/07/04 00:07:53;;;;;;;15.77;14.43;;;;;;;21.97;100.00;-17046.38;6213828;23;20161;-65
2023/07/04 00:10:21;;;;;;;16.08;14.63;;;;;;;22.07;100.00;-16724.66;6187741;23;20169;-66
2023/07/04 00:12:49;;;;;;;15.80;14.60;;;;;;;22.08;100.00;-16401.16;6214058;23;20182;-66
2023/07/04 00:15:16;;;;;;;17.55;15.18;;;;;;;22.15;100.00;-16402.50;6214554;23;20248;-65
2023/07/04 00:17:43;;;;;;;14.65;13.52;;;;;;;22.01;100.00;-16723.41;6213918;23;20497;-66
2023/07/04 00:20:13;;;;;;;15.63;14.10;;;;;;;21.99;100.00;-16722.97;6214575;23;20608;-65
2023/07/04 00:22:40;;;;;;;15.57;13.95;;;;;;;22.01;100.00;-16723.41;6213955;23;20158;-64
2023/07/04 00:25:09;;;;;;;15.50;13.93;;;;;;;21.89;100.00;-16720.94;6213954;23;20213;-65
2023/07/04 00:27:36;;;;;;;16.10;14.52;;;;;;;21.91;100.00;-16721.38;6214205;23;20158;-66
2023/07/04 00:30:04;;;;;;;16.27;13.93;;;;;;;21.96;100.00;-16398.69;6215072;23;20169;-65
2023/07/04 00:32:31;;;;;;;17.83;13.70;;;;;;;22.02;100.00;-16399.94;6215553;23;20192;-65
2023/07/04 00:34:59;;;;;;;17.20;13.80;;;;;;;21.96;100.00;-16398.59;6215313;23;20511;-66
2023/07/04 00:37:28;;;;;;;18.05;14.05;;;;;;;22.00;100.00;-16399.41;6216050;23;20165;-66
2023/07/04 00:39:56;;;;;;;15.60;13.60;;;;;;;21.92;100.00;-16721.47;6216157;23;20608;-65
2023/07/04 00:42:23;;;;;;;14.43;13.30;;;;;;;21.81;100.00;-16395.69;6215628;23;20165;-65
2023/07/04 00:44:55;;;;;;;15.27;13.93;;;;;;;21.97;100.00;-16398.91;6215986;23;20536;-65
2023/07/04 00:47:33;;;;;;;14.48;13.18;;;;;;;21.87;100.00;-16396.81;6216081;23;20215;-66
2023/07/04 00:50:07;;;;;;;19.23;15.25;;;;;;;21.89;100.00;-16397.25;6216041;23;20157;-66
2023/07/04 00:52:37;;;;;;;18.63;15.40;;;;;;;21.85;100.00;-16396.41;6216040;23;20471;-64
2023/07/04 00:55:09;;;;;;;17.55;15.55;;;;;;;21.89;100.00;-16397.25;6215431;23;20161;-66
2023/07/04 00:57:37;;;;;;;26.05;17.63;;;;;;;21.90;100.00;-16397.44;6215408;23;20197;-66
2023/07/04 01:00:15;;;;;;;17.67;16.15;;;;;;;21.93;100.00;-16398.06;6215528;23;20165;-66
2023/07/04 01:02:45;;;;;;;21.52;17.55;;;;;;;21.91;100.00;-16721.38;6215597;23;20163;-65
2023/07/04 01:05:15;;;;;;;23.02;17.25;;;;;;;21.86;100.00;-16720.41;6215632;23;20172;-65
2023/07/04 01:07:47;;;;;;;19.60;17.77;;;;;;;21.87;100.00;-17044.19;6216163;23;20169;-65
2023/07/04 01:10:19;;;;;;;18.97;17.07;;;;;;;21.65;100.00;-17039.41;6215777;23;20157;-65
2023/07/04 01:12:46;;;;;;;25.57;18.43;;;;;;;21.77;100.00;-17042.03;6215260;23;20157;-66
2023/07/04 01:15:13;;;;;;;25.90;19.23;;;;;;;21.75;100.00;-17041.59;6215463;23;20251;-65
2023/07/04 01:17:42;;;;;;;41.55;20.80;;;;;;;21.60;100.00;-17038.34;6215695;23;20212;-65
2023/07/04 01:20:13;;;;;;;34.90;19.35;;;;;;;21.70;100.00;-17040.50;6215956;23;20466;-65
2023/07/04 01:22:48;;;;;;;44.42;21.10;;;;;;;21.81;100.00;-17042.91;6215529;23;20157;-66
2023/07/04 01:25:27;;;;;;;26.20;18.38;;;;;;;21.64;100.00;-17039.22;6215834;23;20157;-65
2023/07/04 01:27:59;;;;;;;20.80;18.35;;;;;;;21.50;100.00;-17036.16;6215598;23;20161;-66
2023/07/04 01:30:28;;;;;;;26.83;19.70;;;;;;;21.36;100.00;-17356.63;6215728;23;20158;-65
2023/07/04 01:32:55;;;;;;;29.13;20.02;;;;;;;21.29;100.00;-17678.47;6215661;23;20236;-66
2023/07/04 01:35:23;;;;;;;29.92;18.75;;;;;;;21.19;100.00;-17676.19;6215788;23;20588;-65
2023/07/04 01:37:50;;;;;;;28.17;19.90;;;;;;;21.36;100.00;-17356.63;6215305;23;20211;-65
2023/07/04 01:40:17;;;;;;;28.75;19.02;;;;;;;21.24;100.00;-17353.94;6215477;23;20165;-65
2023/07/04 01:42:44;;;;;;;30.53;18.17;;;;;;;21.18;100.00;-17352.72;6215304;23;20215;-66
2023/07/04 01:45:13;;;;;;;33.80;19.30;;;;;;;21.20;100.00;-17353.06;6188774;23;20153;-63
2023/07/04 01:47:40;;;;;;;22.33;17.98;;;;;;;21.13;100.00;-17351.50;6215545;23;20188;-65
2023/07/04 01:50:09;;;;;;;28.92;19.48;;;;;;;20.99;100.00;-17348.50;6214943;23;20160;-66
2023/07/04 01:52:36;;;;;;;31.00;19.33;;;;;;;20.82;100.00;-17667.88;6215484;23;20153;-66
2023/07/04 01:55:04;;;;;;;31.90;19.90;;;;;;;20.79;100.00;-17667.09;6214981;23;20192;-65
2023/07/04 01:57:31;;;;;;;28.25;19.50;;;;;;;20.68;100.00;-17987.66;6215341;23;20540;-65
2023/07/04 01:59:58;;;;;;;22.93;19.40;;;;;;;20.93;100.00;-17670.38;6215567;23;20593;-66
2023/07/04 02:02:26;;;;;;;25.90;19.50;;;;;;;20.97;100.00;-17671.19;6215050;23;20165;-65
2023/07/04 02:04:53;;;;;;;29.75;20.30;;;;;;;21.11;100.00;-17674.38;6214888;23;20220;-65
2023/07/04 02:07:20;;;;;;;26.92;20.13;;;;;;;21.16;100.00;-17352.16;6215080;23;20158;-65
2023/07/04 02:09:47;;;;;;;23.45;20.02;;;;;;;21.24;100.00;-17354.06;6215154;23;20470;-64
2023/07/04 02:12:14;;;;;;;28.35;19.08;;;;;;;21.14;100.00;-17675.06;6215449;23;20235;-65
2023/07/04 02:14:41;;;;;;;26.23;19.77;;;;;;;21.05;100.00;-17026.50;6214976;23;20203;-66
2023/07/04 02:17:08;;;;;;;24.88;19.90;;;;;;;21.03;100.00;-17026.16;6214933;23;20257;-64
2023/07/04 02:19:36;;;;;;;28.15;20.33;;;;;;;21.15;100.00;-17351.94;6215411;23;20157;-65
2023/07/04 02:22:03;;;;;;;26.55;18.65;;;;;;;21.15;100.00;-17352.06;6215239;23;20158;-65
2023/07/04 02:24:30;;;;;;;27.30;19.75;;;;;;;20.97;100.00;-17348.03;6214851;23;20154;-65
2023/07/04 02:26:57;;;;;;;21.20;19.13;;;;;;;21.11;100.00;-17351.16;6214634;23;20245;-65
2023/07/04 02:29:24;;;;;;;21.05;18.80;;;;;;;20.86;100.00;-17345.59;6214785;23;20165;-65
2023/07/04 02:31:51;;;;;;;34.83;20.13;;;;;;;21.11;100.00;-17351.16;6214598;23;20191;-65
2023/07/04 02:34:17;;;;;;;31.57;19.40;;;;;;;21.05;100.00;-17349.81;6214818;23;20516;-65
2023/07/04 02:36:46;;;;;;;31.77;18.67;;;;;;;21.19;100.00;-17352.94;6214645;23;20185;-65
2023/07/04 02:39:13;;;;;;;26.27;17.60;;;;;;;21.12;100.00;-17351.38;6214714;23;20216;-65
2023/07/04 02:41:40;;;;;;;25.27;18.13;;;;;;;21.10;100.00;-17350.94;6214770;23;20161;-64
2023/07/04 02:44:07;;;;;;;31.17;18.97;;;;;;;21.04;100.00;-17672.78;6214880;23;20154;-65
2023/07/04 02:46:34;;;;;;;37.92;18.70;;;;;;;21.01;100.00;-17672.09;6214807;23;20162;-65
2023/07/04 02:49:02;;;;;;;26.50;18.63;;;;;;;21.03;100.00;-17672.44;6214623;23;20243;-65
2023/07/04 02:51:29;;;;;;;29.85;18.48;;;;;;;21.03;100.00;-17672.56;6214726;23;20493;-66
2023/07/04 02:53:57;;;;;;;26.55;18.50;;;;;;;21.01;100.00;-17672.09;6214438;23;20188;-66
2023/07/04 02:56:24;;;;;;;27.95;19.13;;;;;;;21.06;100.00;-17996.41;6214489;23;20172;-65
2023/07/04 02:58:51;;;;;;;23.07;18.00;;;;;;;21.14;100.00;-17998.25;6214291;23;20201;-65
2023/07/04 03:01:18;;;;;;;23.07;18.20;;;;;;;21.12;100.00;-17997.69;6214658;23;20162;-65
2023/07/04 03:03:45;;;;;;;27.00;17.95;;;;;;;21.10;100.00;-17674.16;6214311;23;20189;-66
2023/07/04 03:06:12;;;;;;;35.58;19.58;;;;;;;21.13;100.00;-17674.84;6214180;23;20165;-65
2023/07/04 03:08:39;;;;;;;28.63;19.63;;;;;;;21.11;100.00;-17674.38;6215411;23;20497;-65
2023/07/04 03:11:07;;;;;;;23.57;19.23;;;;;;;21.25;100.00;-17677.56;6214838;23;20623;-65
2023/07/04 03:13:35;;;;;;;27.20;18.95;;;;;;;21.38;100.00;-17680.41;6214744;23;20164;-65
2023/07/04 03:16:02;;;;;;;26.85;18.15;;;;;;;21.44;100.00;-17358.38;6214857;23;20158;-65
2023/07/04 03:18:29;;;;;;;36.67;22.67;;;;;;;21.85;100.00;-17367.41;6214220;23;20169;-66
2023/07/04 03:20:56;;;;;;;35.33;21.35;;;;;;;22.28;100.00;-18348.19;6214393;23;20217;-65
2023/07/04 03:23:22;;;;;;;25.27;19.38;;;;;;;22.69;100.00;-12846.06;6214399;23;20620;-65
2023/07/04 03:25:49;;;;;;;30.17;20.55;;;;;;;23.35;100.00;-7003.47;6214166;23;20158;-66
2023/07/04 03:28:17;;;;;;;37.13;27.10;;;;;;;23.74;100.00;3757.63;6214593;23;20164;-65
2023/07/04 03:30:44;;;;;;;75.05;39.90;;;;;;;23.52;100.00;11602.41;6213977;23;20596;-65
2023/07/04 03:33:11;;;;;;;80.03;41.53;;;;;;;23.29;100.00;11269.56;6214310;23;20497;-65
2023/07/04 03:35:41;;;;;;;80.85;40.78;;;;;;;23.14;100.00;5056.47;6214484;23;20509;-66
2023/07/04 03:38:08;;;;;;;81.05;43.13;;;;;;;23.06;100.00;3749.69;6214163;23;20241;-65
2023/07/04 03:40:34;;;;;;;75.88;43.40;;;;;;;23.10;100.00;4076.53;6214053;23;20169;-67
2023/07/04 03:44:59;;;;;;;84.03;44.70;;;;;;;23.09;100.00;-163.91;5093347;22;1393009;-59
2023/07/04 03:47:25;;;;;;;88.65;46.67;;;;;;;23.27;100.00;163.13;5088559;28;20192;-60
2023/07/04 03:49:52;;;;;;;80.25;46.13;;;;;;;23.40;100.00;2447.81;5089013;28;20184;-58
2023/07/04 03:52:19;;;;;;;88.43;47.42;;;;;;;23.43;100.00;5387.13;5088733;28;20196;-58
2023/07/04 03:54:46;;;;;;;89.85;45.05;;;;;;;23.76;100.00;8334.91;5088593;28;20187;-59
2023/07/04 03:57:14;;;;;;;70.25;41.38;;;;;;;23.89;100.00;11938.88;5088663;28;20188;-59
2023/07/04 03:59:41;;;;;;;75.20;42.40;;;;;;;24.04;100.00;17845.84;5088850;28;20184;-59
2023/07/04 04:02:09;;;;;;;65.70;39.92;;;;;;;24.28;100.00;24756.75;5088396;28;20191;-59
2023/07/04 04:04:39;;;;;;;55.88;39.13;;;;;;;24.55;100.00;34329.84;5088099;28;20299;-60
2023/07/04 04:07:07;;;;;;;64.95;39.63;;;;;;;24.80;100.00;41949.78;5088194;28;20196;-58
2023/07/04 04:09:34;;;;;;;59.83;36.78;;;;;;;24.81;100.00;52228.16;5088101;28;20180;-60
2023/07/04 04:12:01;;;;;;;57.85;35.00;;;;;;;24.99;100.00;57895.47;5088055;28;20199;-60
2023/07/04 04:14:29;;;;;;;53.83;35.08;;;;;;;25.23;100.00;72593.94;5088289;28;20237;-59
2023/07/04 04:16:56;;;;;;;56.40;33.63;;;;;;;25.32;100.00;91714.13;5087821;28;20683;-60
2023/07/04 04:19:25;;;;;;;52.55;31.20;;;;;;;25.48;100.00;91738.13;5088120;28;20180;-60
2023/07/04 04:21:52;;;;;;;51.30;33.47;;;;;;;25.47;100.00;100153.78;5087847;28;20184;-61
2023/07/04 04:24:19;;;;;;;65.68;35.97;;;;;;;25.44;100.00;104870.63;5087632;28;20212;-60
2023/07/04 04:26:46;;;;;;;64.68;37.22;;;;;;;25.67;100.00;111331.28;5088212;28;20542;-61
2023/07/04 04:29:15;;;;;;;58.25;36.58;;;;;;;25.63;100.00;132697.06;5087763;28;20184;-59
2023/07/04 04:31:42;;;;;;;68.35;38.75;;;;;;;25.78;100.00;139544.50;5088004;28;20610;-60
2023/07/04 04:34:09;;;;;;;80.55;40.67;;;;;;;25.88;100.00;137520.84;5087643;28;20192;-59
2023/07/04 04:36:38;;;;;;;71.40;40.97;;;;;;;26.01;100.00;152580.69;5087856;28;20188;-60
2023/07/04 04:39:05;;;;;;;88.70;42.45;;;;;;;26.21;100.00;152631.84;5087786;28;20279;-59
2023/07/04 04:41:32;;;;;;;84.97;41.95;;;;;;;26.32;100.00;152659.97;5087662;28;20268;-59
2023/07/04 04:44:04;;;;;;;82.63;43.50;;;;;;;26.46;100.00;152694.50;5087435;28;20246;-59
2023/07/04 04:46:31;;;;;;;80.75;43.35;;;;;;;26.61;100.00;152734.13;5087688;28;20215;-60
2023/07/04 04:49:03;;;;;;;76.65;41.97;;;;;;;26.63;100.00;152739.25;5087848;28;20563;-60
2023/07/04 04:51:30;;;;;;;82.80;43.08;;;;;;;26.85;100.00;152793.03;5087821;28;20267;-60
2023/07/04 04:54:00;;;;;;;88.22;41.17;;;;;;;27.07;100.00;152849.31;5086342;28;20184;-59
2023/07/04 04:56:27;;;;;;;62.95;38.92;;;;;;;27.14;100.00;152867.22;5073835;28;20188;-60
2023/07/04 04:58:54;;;;;;;58.75;34.42;;;;;;;27.28;100.00;152903.03;5074036;28;20189;-61
2023/07/04 05:01:23;;;;;;;56.95;33.13;;;;;;;27.35;100.00;152920.94;5073581;28;20189;-60
2023/07/04 05:03:52;;;;;;;49.05;29.35;;;;;;;27.55;100.00;152970.88;5073559;28;20205;-61
2023/07/04 05:06:20;;;;;;;38.83;26.30;;;;;;;27.59;100.00;152982.38;5073944;28;20227;-60
2023/07/04 05:08:47;;;;;;;33.28;26.90;;;;;;;27.65;100.00;152997.75;5073563;28;20189;-58
2023/07/04 05:11:15;;;;;;;45.00;27.70;;;;;;;27.82;100.00;153040.00;5073510;28;20192;-60
2023/07/04 05:13:45;;;;;;;46.78;27.55;;;;;;;27.79;100.00;153032.31;5073419;28;20181;-60
2023/07/04 05:16:15;;;;;;;36.20;27.08;;;;;;;27.86;100.00;153048.94;5074136;28;20562;-61
2023/07/04 05:18:44;;;;;;;39.78;26.67;;;;;;;28.00;100.00;153086.06;5073833;28;20187;-61
2023/07/04 05:21:12;;;;;;;46.08;25.75;;;;;;;28.32;100.00;153165.47;5073488;28;20635;-60
2023/07/04 05:23:41;;;;;;;35.90;23.65;;;;;;;28.55;100.00;153225.66;5073553;28;20204;-60
2023/07/04 05:26:09;;;;;;;27.42;23.10;;;;;;;28.73;100.00;153270.47;5073562;28;20204;-65
2023/07/04 05:28:38;;;;;;;58.25;39.92;;;;;;;28.46;100.00;153201.31;5068964;28;20201;-59
2023/07/04 05:31:07;;;;;;;28.73;18.88;;;;;;;28.42;100.00;153191.06;5061551;28;20191;-61
2023/07/04 05:33:35;;;;;;;23.23;18.70;;;;;;;28.71;100.00;153264.09;5073051;28;20185;-60
2023/07/04 05:36:07;;;;;;;26.75;20.05;;;;;;;28.69;100.00;153258.91;5061997;28;20181;-60
2023/07/04 05:38:42;;;;;;;24.48;19.75;;;;;;;28.71;100.00;153264.09;5073476;28;20677;-60
2023/07/04 05:41:10;;;;;;;24.58;19.10;;;;;;;28.55;100.00;153224.38;5073069;28;20288;-60
2023/07/04 05:43:39;;;;;;;32.22;19.88;;;;;;;28.95;100.00;153325.53;5072734;28;20258;-61
2023/07/04 05:46:06;;;;;;;32.17;18.95;;;;;;;29.22;100.00;153394.72;5057893;28;20244;-60
2023/07/04 05:48:36;;;;;;;26.10;18.42;;;;;;;29.44;100.00;153449.88;5054774;28;20188;-60
2023/07/04 05:51:05;;;;;;;25.23;18.20;;;;;;;29.62;100.00;153494.72;5073274;28;20185;-61
2023/07/04 05:53:34;;;;;;;37.83;19.75;;;;;;;29.96;100.00;153581.84;5072538;28;20276;-59
2023/07/04 05:56:09;;;;;;;30.23;19.77;;;;;;;30.20;100.00;153642.09;5072721;28;20264;-60
2023/07/04 05:58:36;;;;;;;38.55;21.15;;;;;;;30.08;100.00;153612.63;5072538;28;20779;-60
2023/07/04 06:01:09;;;;;;;25.45;18.33;;;;;;;30.21;100.00;153644.66;5072381;28;20184;-60
2023/07/04 06:03:36;;;;;;;22.42;17.02;;;;;;;30.26;100.00;153658.72;5053649;28;20228;-61
2023/07/04 06:06:04;;;;;;;20.27;16.20;;;;;;;30.38;100.00;153689.50;5051736;28;20623;-60
2023/07/04 06:08:30;;;;;;;18.35;16.55;;;;;;;30.30;100.00;153667.69;5052102;28;20186;-58
2023/07/04 06:11:01;;;;;;;24.33;17.10;;;;;;;30.00;100.00;153590.84;5052021;28;20600;-60
2023/07/04 06:13:29;;;;;;;20.30;17.33;;;;;;;29.90;100.00;153566.50;5052218;28;20570;-61
2023/07/04 06:15:56;;;;;;;26.42;18.08;;;;;;;29.98;100.00;153587.00;5052619;28;20536;-59
2023/07/04 06:18:25;;;;;;;25.98;16.70;;;;;;;30.52;100.00;153724.16;5052983;28;20208;-60
2023/07/04 06:20:52;;;;;;;31.13;24.45;;;;;;;30.52;100.00;153722.88;5052504;28;20185;-60
2023/07/04 06:23:20;;;;;;;18.85;15.68;;;;;;;30.58;100.00;153738.28;5055879;28;20208;-62
2023/07/04 06:25:47;;;;;;;17.73;16.23;;;;;;;30.77;100.00;153788.25;5072144;28;20189;-60
2023/07/04 06:28:14;;;;;;;22.27;16.30;;;;;;;31.00;100.00;153844.72;5071803;28;20185;-60
2023/07/04 06:30:41;;;;;;;23.15;15.30;;;;;;;31.48;100.00;153967.84;5071875;28;20185;-60
2023/07/04 06:33:09;;;;;;;15.55;13.43;;;;;;;31.74;100.00;154033.34;5071271;28;20585;-60
2023/07/04 06:35:42;;;;;;;13.98;13.00;;;;;;;31.66;100.00;154014.06;5069569;28;20675;-60
2023/07/04 06:38:10;;;;;;;14.73;12.68;;;;;;;31.58;100.00;153993.53;5051863;28;20185;-61
2023/07/04 06:40:37;;;;;;;14.65;11.52;;;;;;;31.80;100.00;154048.69;5052019;28;20265;-59
2023/07/04 06:43:05;;;;;;;15.30;10.80;;;;;;;32.60;100.00;154252.75;5051897;28;20559;-60
2023/07/04 06:45:33;;;;;;;10.88;10.13;;;;;;;32.62;100.00;154256.66;5051055;28;20694;-61
2023/07/04 06:48:00;;;;;;;11.75;10.75;;;;;;;31.80;100.00;154048.69;5051459;28;20250;-61
2023/07/04 06:50:28;;;;;;;9.93;9.32;;;;;;;31.56;100.00;153988.44;5051191;28;20191;-60
2023/07/04 06:52:56;;;;;;;8.75;8.25;;;;;;;31.45;100.00;153960.13;5051906;28;20208;-60
2023/07/04 06:55:23;;;;;;;8.80;8.38;;;;;;;30.95;100.00;153833.13;5051318;28;20519;-60
2023/07/04 06:57:56;;;;;;;9.05;8.25;;;;;;;30.59;100.00;153742.13;5053074;28;20779;-67
2023/07/04 07:00:23;;;;;;;8.77;8.18;;;;;;;30.45;100.00;153706.22;5053709;28;20182;-65
2023/07/04 07:02:55;;;;;;;8.20;7.65;;;;;;;30.94;100.00;153830.56;5053652;28;20623;-66
2023/07/04 07:05:25;;;;;;;8.23;7.70;;;;;;;30.77;100.00;153786.97;5053401;28;20205;-66
2023/07/04 07:07:52;;;;;;;7.93;7.40;;;;;;;30.62;100.00;153748.53;5052870;28;20284;-66
2023/07/04 07:10:25;;;;;;;7.97;7.57;;;;;;;30.09;100.00;153615.16;5070195;28;20216;-67
2023/07/04 07:12:52;;;;;;;8.77;8.18;;;;;;;30.09;100.00;153613.88;5072001;28;20193;-66
2023/07/04 07:15:19;;;;;;;8.32;8.02;;;;;;;30.13;100.00;153625.41;5072820;28;20276;-66
2023/07/04 07:17:50;;;;;;;8.45;7.85;;;;;;;29.91;100.00;153569.06;5067308;28;20204;-64
2023/07/04 07:20:18;;;;;;;8.23;7.80;;;;;;;29.98;100.00;153585.69;5052175;28;20188;-64
2023/07/04 07:22:46;;;;;;;9.77;7.72;;;;;;;29.53;100.00;153471.63;5053141;28;20182;-65
2023/07/04 07:25:13;;;;;;;8.27;7.82;;;;;;;29.52;100.00;153469.06;5052403;28;20690;-66
2023/07/04 07:27:42;;;;;;;9.15;8.07;;;;;;;29.48;100.00;153461.41;5053889;28;20211;-66
2023/07/04 07:30:09;;;;;;;8.05;7.75;;;;;;;29.56;100.00;153479.31;5053029;28;20666;-65
2023/07/04 07:32:37;;;;;;;8.75;7.75;;;;;;;29.59;100.00;153488.28;5052901;28;20194;-66
2023/07/04 07:35:04;;;;;;;8.60;8.20;;;;;;;29.73;100.00;153522.88;5052299;28;20284;-66
2023/07/04 07:37:31;;;;;;;7.95;7.65;;;;;;;29.61;100.00;153493.41;5052454;28;20189;-65
2023/07/04 07:39:58;;;;;;;8.52;8.13;;;;;;;29.64;100.00;153499.81;5051513;28;20181;-66
2023/07/04 07:42:25;;;;;;;7.90;7.45;;;;;;;29.65;100.00;153502.38;5052358;28;20327;-65
2023/07/04 07:44:54;;;;;;;9.55;8.45;;;;;;;29.57;100.00;153481.88;5052559;28;20686;-66
2023/07/04 07:47:21;;;;;;;9.05;8.48;;;;;;;29.73;100.00;153524.16;5052486;28;20574;-64
2023/07/04 07:49:49;;;;;;;8.52;8.00;;;;;;;29.74;100.00;153525.44;5052074;28;20296;-68
2023/07/04 07:52:16;;;;;;;9.48;8.90;;;;;;;30.08;100.00;153612.63;5052229;28;20197;-66
2023/07/04 07:54:48;;;;;;;9.05;8.38;;;;;;;30.07;100.00;153608.78;5052838;28;20247;-65
2023/07/04 07:57:15;;;;;;;10.00;9.20;;;;;;;30.13;100.00;153625.41;5052657;28;20192;-65
2023/07/04 07:59:42;;;;;;;8.98;8.18;;;;;;;29.80;100.00;153542.09;5052248;28;20186;-65
2023/07/04 08:02:15;;;;;;;9.27;8.88;;;;;;;29.61;100.00;153492.13;5052961;28;20670;-65
2023/07/04 08:04:42;;;;;;;10.63;9.48;;;;;;;29.66;100.00;153506.25;5052542;28;20209;-66
2023/07/04 08:07:10;;;;;;;12.10;9.13;;;;;;;29.96;100.00;153580.59;5052164;28;20193;-66
2023/07/04 08:09:37;;;;;;;8.85;8.32;;;;;;;29.78;100.00;153535.69;5057555;28;20208;-65
2023/07/04 08:12:05;;;;;;;9.20;8.55;;;;;;;29.88;100.00;153562.63;5052019;28;20192;-66
2023/07/04 08:14:45;;;;;;;8.10;7.70;;;;;;;29.71;100.00;153517.72;5052236;28;20196;-65
2023/07/04 08:17:17;;;;;;;10.07;9.68;;;;;;;30.11;100.00;153620.31;5066662;28;20764;-67
2023/07/04 08:19:44;;;;;;;9.70;8.90;;;;;;;30.13;100.00;153625.41;5053091;28;20269;-66
2023/07/04 08:22:10;;;;;;;9.55;8.88;;;;;;;30.04;100.00;153602.38;5051749;28;20280;-60
2023/07/04 08:24:38;;;;;;;9.57;9.02;;;;;;;29.82;100.00;153545.94;5050518;28;20236;-61
2023/07/04 08:27:05;;;;;;;9.23;8.50;;;;;;;29.92;100.00;153571.59;5051032;28;20193;-62
2023/07/04 08:29:32;;;;;;;8.68;8.25;;;;;;;29.68;100.00;153510.06;5069558;28;20201;-61
2023/07/04 08:31:59;;;;;;;9.55;8.88;;;;;;;29.82;100.00;153545.94;5074291;28;20197;-60
2023/07/04 08:34:28;;;;;;;9.63;9.00;;;;;;;29.96;100.00;153580.59;5073542;28;20189;-63
2023/07/04 08:36:55;;;;;;;8.10;7.80;;;;;;;29.66;100.00;153506.25;5054073;28;20190;-62
2023/07/04 08:39:22;;;;;;;9.63;8.90;;;;;;;29.53;100.00;153471.63;5054410;28;20186;-61
2023/07/04 08:41:56;;;;;;;9.52;8.85;;;;;;;29.74;100.00;153526.75;5054683;28;20563;-59
2023/07/04 08:44:25;;;;;;;8.90;8.43;;;;;;;29.92;100.00;153571.59;5053909;28;20240;-60
2023/07/04 08:46:55;;;;;;;9.25;8.95;;;;;;;29.98;100.00;153585.69;5054364;28;20575;-61
2023/07/04 08:49:30;;;;;;;9.05;8.38;;;;;;;29.76;100.00;153530.56;5053755;28;20192;-60
2023/07/04 08:52:03;;;;;;;9.32;8.73;;;;;;;29.41;100.00;153443.44;5054459;28;20559;-61
2023/07/04 08:54:31;;;;;;;9.07;8.57;;;;;;;29.77;100.00;153533.13;5053836;28;20240;-61
2023/07/04 08:57:00;;;;;;;8.52;7.97;;;;;;;29.99;100.00;153589.56;5054633;28;20193;-61
2023/07/04 08:59:41;;;;;;;9.25;8.50;;;;;;;29.95;100.00;153579.31;5066551;28;20288;-62
2023/07/04 09:02:24;;;;;;;8.98;8.32;;;;;;;29.82;100.00;153547.22;5063084;28;20235;-60
2023/07/04 09:05:01;;;;;;;9.20;8.48;;;;;;;29.80;100.00;153540.78;5073130;28;20285;-60
2023/07/04 09:07:35;;;;;;;8.77;8.18;;;;;;;29.60;100.00;153489.56;5072712;28;20195;-60
2023/07/04 09:10:17;;;;;;;8.50;7.82;;;;;;;29.50;100.00;153466.50;5073030;28;20197;-61
2023/07/04 09:12:45;;;;;;;9.35;8.60;;;;;;;29.49;100.00;153463.91;5073885;28;20536;-66
2023/07/04 09:15:19;;;;;;;9.52;7.93;;;;;;;29.42;100.00;153446.00;5074246;28;20188;-66
2023/07/04 09:17:53;;;;;;;9.40;8.57;;;;;;;29.35;100.00;153426.78;5074449;28;20279;-65
2023/07/04 09:20:22;;;;;;;9.75;8.98;;;;;;;29.20;100.00;153389.59;5074039;28;20188;-66
2023/07/04 09:22:49;;;;;;;9.45;8.80;;;;;;;29.14;100.00;153374.25;5074293;28;20185;-66
2023/07/04 09:25:16;;;;;;;8.60;8.23;;;;;;;28.81;100.00;153291.00;5054965;28;20209;-65
2023/07/04 09:27:42;;;;;;;8.20;7.70;;;;;;;28.85;100.00;153299.97;5054218;28;20662;-65
2023/07/04 09:30:12;;;;;;;8.70;7.85;;;;;;;28.70;100.00;153262.81;5053773;28;20200;-64
2023/07/04 09:32:40;;;;;;;8.95;8.40;;;;;;;28.85;100.00;153301.25;5054219;28;20177;-67
2023/07/04 09:35:08;;;;;;;8.98;8.57;;;;;;;28.70;100.00;153262.81;5053554;28;20182;-65
2023/07/04 09:37:55;;;;;;;9.63;9.13;;;;;;;28.91;100.00;153316.59;5053684;28;20185;-66
2023/07/04 09:40:40;;;;;;;9.18;8.68;;;;;;;28.94;100.00;153323.03;5053945;28;20293;-66
2023/07/04 09:43:08;;;;;;;8.02;7.60;;;;;;;29.08;100.00;153357.56;5054208;28;20574;-67
2023/07/04 09:45:35;;;;;;;9.27;8.50;;;;;;;28.86;100.00;153303.78;5052962;28;20233;-65
2023/07/04 09:48:02;;;;;;;9.02;8.45;;;;;;;29.10;100.00;153362.72;5053467;28;20189;-65
2023/07/04 09:50:31;;;;;;;8.35;7.95;;;;;;;29.33;100.00;153421.66;5053839;28;20196;-66
2023/07/04 09:53:09;;;;;;;8.70;8.30;;;;;;;29.66;100.00;153504.94;5053135;28;20190;-66
2023/07/04 09:55:37;;;;;;;7.88;7.43;;;;;;;30.16;100.00;153631.84;5053709;28;20213;-66
2023/07/04 09:58:18;;;;;;;8.30;7.80;;;;;;;30.21;100.00;153645.97;5053394;28;20192;-66
2023/07/04 10:00:46;;;;;;;9.02;8.52;;;;;;;30.46;100.00;153708.81;5065271;28;20196;-65
2023/07/04 10:03:17;;;;;;;6.93;6.70;;;;;;;30.71;100.00;153771.59;5074067;28;20641;-65
2023/07/04 10:05:49;;;;;;;8.10;7.60;;;;;;;30.65;100.00;153756.22;5072617;28;20201;-65
2023/07/04 10:08:18;;;;;;;8.18;7.53;;;;;;;30.30;100.00;153667.69;5072824;28;20202;-66
2023/07/04 10:10:52;;;;;;;6.55;6.35;;;;;;;30.10;100.00;153617.72;5073153;28;20679;-66
2023/07/04 10:13:21;;;;;;;8.18;7.88;;;;;;;30.09;100.00;153613.88;5073122;28;20686;-66
2023/07/04 10:15:50;;;;;;;8.48;7.90;;;;;;;30.40;100.00;153694.66;5072745;28;20272;-65
2023/07/04 10:18:26;;;;;;;8.07;7.57;;;;;;;30.28;100.00;153663.88;5056886;28;20201;-66
2023/07/04 10:20:55;;;;;;;8.25;7.85;;;;;;;29.33;100.00;153422.94;5052749;28;20227;-66
2023/07/04 10:23:26;;;;;;;10.23;9.38;;;;;;;29.08;100.00;153357.56;5052786;28;20260;-63
2023/07/04 10:25:55;;;;;;;9.70;9.10;;;;;;;29.37;100.00;153433.19;5052762;28;20691;-66
2023/07/04 10:28:26;;;;;;;9.50;8.70;;;;;;;29.28;100.00;153410.06;5052468;28;20192;-65
2023/07/04 10:30:57;;;;;;;9.23;8.75;;;;;;;29.14;100.00;153372.94;5052534;28;20185;-66
2023/07/04 10:33:28;;;;;;;9.32;8.43;;;;;;;29.45;100.00;153452.44;5052758;28;20205;-65
2023/07/04 10:35:56;;;;;;;11.68;8.77;;;;;;;29.30;100.00;153413.97;5052529;28;20185;-65
2023/07/04 10:38:36;;;;;;;9.20;8.35;;;;;;;29.39;100.00;153437.03;5052594;28;20193;-66
2023/07/04 10:41:17;;;;;;;8.80;8.05;;;;;;;29.04;100.00;153349.88;5052117;28;20189;-65
2023/07/04 10:43:50;;;;;;;8.57;7.85;;;;;;;29.16;100.00;153379.34;5052589;28;20220;-66
2023/07/04 10:46:22;;;;;;;7.82;7.53;;;;;;;28.96;100.00;153329.41;5051846;28;20577;-65
2023/07/04 10:48:55;;;;;;;9.65;8.98;;;;;;;29.04;100.00;153349.88;5052140;28;20192;-65
2023/07/04 10:51:29;;;;;;;9.43;8.77;;;;;;;28.94;100.00;153324.25;5052660;28;20258;-65
2023/07/04 10:53:57;;;;;;;8.30;7.70;;;;;;;28.83;100.00;153296.09;5052209;28;20192;-67
2023/07/04 10:56:27;;;;;;;8.38;8.07;;;;;;;28.75;100.00;153274.34;5052258;28;20182;-65
2023/07/04 10:59:01;;;;;;;9.07;8.45;;;;;;;28.81;100.00;153289.72;5052689;28;20181;-65
2023/07/04 11:01:35;;;;;;;9.50;8.57;;;;;;;28.70;100.00;153262.81;5056389;28;20221;-65
2023/07/04 11:04:07;;;;;;;7.82;7.60;;;;;;;28.72;100.00;153267.94;5052875;28;20188;-64
2023/07/04 11:06:42;;;;;;;8.07;7.50;;;;;;;28.43;100.00;153193.66;5052533;28;20272;-67
2023/07/04 11:09:18;;;;;;;8.82;8.40;;;;;;;28.41;100.00;153189.78;5062113;28;20211;-66
2023/07/04 11:11:52;;;;;;;8.73;8.30;;;;;;;28.38;100.00;153180.84;5072772;28;20188;-65
2023/07/04 11:14:24;;;;;;;8.90;8.27;;;;;;;28.45;100.00;153200.03;5072070;28;20184;-65
2023/07/04 11:16:54;;;;;;;9.27;8.70;;;;;;;28.24;100.00;153144.97;5072624;28;20181;-65
2023/07/04 11:19:25;;;;;;;11.73;8.77;;;;;;;28.50;100.00;153211.56;5061720;28;20213;-65